createdAt,value
2023-04-16T00:02:24.648Z,9.60
2023-04-16T00:05:11.106Z,9.60
2023-04-16T00:07:57.511Z,9.60
2023-04-16T00:10:44.012Z,9.60
2023-04-16T00:13:30.436Z,9.50
2023-04-16T00:16:17.008Z,9.60
2023-04-16T00:19:04.647Z,9.50
2023-04-16T00:21:50.965Z,9.50
2023-04-16T00:24:37.545Z,9.50
2023-04-16T00:27:23.988Z,9.50
2023-04-16T00:30:10.905Z,9.60
2023-04-16T00:32:57.280Z,9.60
2023-04-16T00:35:46.574Z,9.60
2023-04-16T00:38:33.333Z,9.60
2023-04-16T00:41:19.759Z,9.60
2023-04-16T00:44:06.413Z,9.60
2023-04-16T00:46:53.151Z,9.60
2023-04-16T00:49:40.390Z,9.60
2023-04-16T00:52:31.164Z,9.60
2023-04-16T00:55:18.965Z,9.60
2023-04-16T00:58:05.764Z,9.60
2023-04-16T01:00:52.452Z,9.50
2023-04-16T01:03:41.016Z,9.60
2023-04-16T01:06:27.836Z,9.60
2023-04-16T01:09:17.704Z,9.60
2023-04-16T01:12:04.116Z,9.60
2023-04-16T01:14:50.797Z,9.60
2023-04-16T01:17:37.266Z,9.70
2023-04-16T01:20:23.811Z,9.60
2023-04-16T01:23:12.630Z,9.60
2023-04-16T01:25:59.052Z,9.60
2023-04-16T01:28:45.468Z,9.60
2023-04-16T01:31:32.003Z,9.60
2023-04-16T01:34:18.385Z,9.60
2023-04-16T01:37:05.202Z,9.60
2023-04-16T01:39:53.429Z,9.70
2023-04-16T01:42:40.239Z,9.60
2023-04-16T01:45:26.943Z,9.70
2023-04-16T01:48:13.550Z,9.70
2023-04-16T01:51:00.589Z,9.70
2023-04-16T01:53:47.220Z,9.70
2023-04-16T01:56:35.198Z,9.70
2023-04-16T01:59:21.854Z,9.70
2023-04-16T02:02:11.265Z,9.70
2023-04-16T02:04:58.401Z,9.70
2023-04-16T02:07:45.163Z,9.70
2023-04-16T02:10:31.808Z,9.70
2023-04-16T02:13:19.569Z,9.70
2023-04-16T02:16:06.855Z,9.70
2023-04-16T02:18:53.629Z,9.70
2023-04-16T02:21:40.007Z,9.70
2023-04-16T02:24:26.605Z,9.70
2023-04-16T02:27:13.087Z,9.70
2023-04-16T02:30:01.059Z,9.60
2023-04-16T02:32:47.417Z,9.60
2023-04-16T02:35:34.209Z,9.50
2023-04-16T02:38:20.804Z,9.50
2023-04-16T02:41:07.146Z,9.50
2023-04-16T02:43:53.668Z,9.50
2023-04-16T02:46:41.494Z,9.60
2023-04-16T02:49:27.862Z,9.60
2023-04-16T02:52:15.607Z,9.50
2023-04-16T02:55:02.647Z,9.50
2023-04-16T02:57:49.484Z,9.40
2023-04-16T03:00:36.043Z,9.40
2023-04-16T03:03:24.441Z,9.40
2023-04-16T03:06:11.547Z,9.40
2023-04-16T03:08:58.245Z,9.40
2023-04-16T03:11:44.701Z,9.40
2023-04-16T03:14:31.484Z,9.40
2023-04-16T03:17:17.885Z,9.30
2023-04-16T03:20:07.169Z,9.30
2023-04-16T03:22:53.906Z,9.40
2023-04-16T03:25:40.729Z,9.40
2023-04-16T03:28:27.129Z,9.30
2023-04-16T03:31:13.878Z,9.30
2023-04-16T03:34:00.210Z,9.30
2023-04-16T03:36:48.231Z,9.30
2023-04-16T03:39:35.102Z,9.30
2023-04-16T03:42:21.724Z,9.30
2023-04-16T03:45:09.605Z,9.20
2023-04-16T03:47:56.435Z,9.20
2023-04-16T03:50:47.444Z,9.20
2023-04-16T03:53:35.058Z,9.20
2023-04-16T03:56:21.754Z,9.20
2023-04-16T03:59:08.602Z,9.20
2023-04-16T04:01:55.399Z,9.10
2023-04-16T04:04:42.259Z,9.10
2023-04-16T04:07:29.133Z,9.00
2023-04-16T04:10:17.282Z,8.90
2023-04-16T04:13:05.144Z,9.00
2023-04-16T04:15:51.878Z,8.90
2023-04-16T04:18:38.941Z,8.90
2023-04-16T04:21:25.883Z,8.90
2023-04-16T04:24:12.712Z,8.90
2023-04-16T04:27:01.733Z,8.80
2023-04-16T04:29:48.180Z,8.80
2023-04-16T04:32:34.710Z,8.80
2023-04-16T04:35:21.506Z,8.70
2023-04-16T04:38:08.058Z,8.70
2023-04-16T04:40:54.561Z,8.70
2023-04-16T04:43:42.750Z,8.80
2023-04-16T04:46:29.393Z,8.70
2023-04-16T04:49:15.740Z,8.70
2023-04-16T04:52:02.498Z,8.70
2023-04-16T04:54:48.984Z,8.70
2023-04-16T04:57:35.336Z,8.70
2023-04-16T05:00:23.345Z,8.70
2023-04-16T05:03:12.474Z,8.70
2023-04-16T05:05:59.313Z,8.80
2023-04-16T05:08:45.655Z,8.80
2023-04-16T05:11:32.106Z,8.80
2023-04-16T05:14:18.421Z,8.70
2023-04-16T05:17:08.044Z,8.70
2023-04-16T05:19:55.044Z,8.70
2023-04-16T05:22:42.686Z,8.80
2023-04-16T05:25:29.444Z,8.70
2023-04-16T05:28:15.912Z,8.80
2023-04-16T05:31:02.286Z,8.70
2023-04-16T05:33:50.114Z,8.70
2023-04-16T05:36:36.695Z,8.70
2023-04-16T05:39:23.258Z,8.70
2023-04-16T05:42:09.599Z,8.70
2023-04-16T05:44:56.087Z,8.60
2023-04-16T05:47:42.390Z,8.70
2023-04-16T05:50:30.076Z,8.70
2023-04-16T05:53:18.922Z,8.60
2023-04-16T05:56:06.270Z,8.60
2023-04-16T05:58:52.998Z,8.60
2023-04-16T06:01:39.367Z,8.70
2023-04-16T06:04:26.290Z,8.60
2023-04-16T06:07:14.114Z,8.60
2023-04-16T06:10:00.417Z,8.60
2023-04-16T06:12:46.888Z,8.70
2023-04-16T06:15:33.306Z,8.70
2023-04-16T06:18:19.764Z,8.70
2023-04-16T06:21:06.327Z,8.70
2023-04-16T06:23:55.364Z,8.70
2023-04-16T06:26:41.695Z,8.70
2023-04-16T06:29:39.991Z,8.80
2023-04-16T06:32:27.892Z,8.80
2023-04-16T06:35:14.663Z,9.00
2023-04-16T06:38:01.265Z,9.00
2023-04-16T06:40:49.921Z,9.10
2023-04-16T06:43:36.455Z,9.10
2023-04-16T06:46:22.927Z,9.00
2023-04-16T06:49:09.703Z,8.90
2023-04-16T06:51:56.448Z,9.00
2023-04-16T06:54:42.909Z,9.00
2023-04-16T06:57:30.760Z,9.10
2023-04-16T07:00:17.241Z,9.10
2023-04-16T07:03:03.784Z,9.10
2023-04-16T07:05:50.583Z,9.30
2023-04-16T07:08:37.255Z,9.30
2023-04-16T07:11:23.815Z,9.20
2023-04-16T07:14:11.681Z,9.30
2023-04-16T07:16:58.553Z,9.40
2023-04-16T07:19:45.239Z,9.40
2023-04-16T07:22:32.059Z,9.40
2023-04-16T07:25:18.504Z,9.40
2023-04-16T07:28:04.946Z,9.40
2023-04-16T07:30:53.098Z,9.40
2023-04-16T07:33:39.504Z,9.40
2023-04-16T07:36:27.383Z,9.30
2023-04-16T07:39:14.089Z,9.30
2023-04-16T07:42:00.601Z,9.30
2023-04-16T07:44:47.033Z,9.20
2023-04-16T07:47:34.900Z,9.20
2023-04-16T07:50:21.320Z,9.20
2023-04-16T07:53:07.678Z,9.20
2023-04-16T07:55:54.125Z,9.10
2023-04-16T07:58:40.828Z,9.10
2023-04-16T08:01:27.731Z,9.10
2023-04-16T08:04:17.458Z,9.20
2023-04-16T08:07:04.167Z,9.20
2023-04-16T08:09:52.258Z,9.20
2023-04-16T08:12:38.918Z,9.20
2023-04-16T08:15:25.747Z,9.20
2023-04-16T08:18:12.805Z,9.30
2023-04-16T08:21:00.589Z,9.30
2023-04-16T08:23:47.100Z,9.30
2023-04-16T08:26:33.728Z,9.20
2023-04-16T08:29:20.757Z,9.20
2023-04-16T08:32:09.517Z,9.20
2023-04-16T08:34:56.160Z,9.20
2023-04-16T08:37:43.916Z,9.20
2023-04-16T08:40:31.096Z,9.20
2023-04-16T08:43:19.574Z,9.20
2023-04-16T08:46:06.831Z,9.20
2023-04-16T08:48:56.197Z,9.20
2023-04-16T08:51:44.381Z,9.20
2023-04-16T08:54:40.434Z,9.30
2023-04-16T08:57:37.539Z,9.20
2023-04-16T09:00:24.816Z,9.20
2023-04-16T09:03:11.657Z,9.30
2023-04-16T09:06:01.111Z,9.40
2023-04-16T09:08:49.052Z,9.40
2023-04-16T09:11:37.512Z,9.40
2023-04-16T09:14:23.935Z,9.40
2023-04-16T09:17:11.953Z,9.50
2023-04-16T09:19:58.630Z,9.50
2023-04-16T09:22:45.570Z,9.50
2023-04-16T09:25:35.718Z,9.60
2023-04-16T09:28:43.277Z,9.60
2023-04-16T09:31:30.056Z,9.50
2023-04-16T09:34:16.760Z,9.50
2023-04-16T09:37:19.127Z,9.50
2023-04-16T09:40:06.952Z,9.50
2023-04-16T09:42:54.681Z,9.50
2023-04-16T09:45:53.513Z,9.50
2023-04-16T09:48:40.338Z,9.60
2023-04-16T09:51:28.347Z,9.70
2023-04-16T09:54:15.516Z,9.80
2023-04-16T09:57:02.479Z,9.90
2023-04-16T09:59:50.325Z,9.90
2023-04-16T10:02:42.450Z,9.90
2023-04-16T10:05:29.418Z,9.90
2023-04-16T10:08:16.084Z,9.90
2023-04-16T10:11:03.760Z,9.90
2023-04-16T10:13:50.950Z,9.90
2023-04-16T10:16:40.012Z,9.80
2023-04-16T10:19:28.635Z,9.80
2023-04-16T10:22:15.350Z,9.80
2023-04-16T10:25:02.191Z,9.90
2023-04-16T10:27:49.309Z,9.90
2023-04-16T10:30:36.467Z,9.80
2023-04-16T10:33:24.476Z,9.90
2023-04-16T10:36:13.923Z,9.90
2023-04-16T10:39:01.734Z,9.80
2023-04-16T10:41:48.531Z,9.90
2023-04-16T10:44:35.490Z,10.00
2023-04-16T10:47:26.283Z,10.00
2023-04-16T10:50:17.519Z,10.00
2023-04-16T10:53:23.687Z,10.10
2023-04-16T10:56:14.111Z,10.10
2023-04-16T10:59:00.399Z,10.10
2023-04-16T11:01:48.530Z,10.10
2023-04-16T11:04:36.705Z,10.10
2023-04-16T11:07:33.348Z,10.20
2023-04-16T11:10:21.195Z,10.20
2023-04-16T11:13:08.961Z,10.10
2023-04-16T11:15:58.701Z,10.10
2023-04-16T11:18:51.569Z,10.10
2023-04-16T11:21:38.365Z,10.10
2023-04-16T11:24:26.200Z,10.10
2023-04-16T11:27:16.107Z,10.10
2023-04-16T11:30:05.310Z,10.20
2023-04-16T11:32:51.862Z,10.20
2023-04-16T11:35:39.180Z,10.30
2023-04-16T11:38:35.028Z,10.30
2023-04-16T11:41:22.805Z,10.30
2023-04-16T11:44:20.351Z,10.40
2023-04-16T11:47:07.614Z,10.60
2023-04-16T11:49:54.595Z,10.60
2023-04-16T11:52:41.341Z,10.60
2023-04-16T11:55:28.068Z,10.60
2023-04-16T11:58:16.340Z,10.60
2023-04-16T12:01:04.760Z,10.60
2023-04-16T12:03:51.707Z,10.60
2023-04-16T12:06:38.416Z,10.60
2023-04-16T12:09:25.864Z,10.50
2023-04-16T12:12:36.623Z,10.40
2023-04-16T12:15:22.918Z,10.40
2023-04-16T12:18:11.077Z,10.40
2023-04-16T12:20:57.526Z,10.40
2023-04-16T12:23:43.798Z,10.50
2023-04-16T12:26:38.318Z,10.40
2023-04-16T12:29:27.897Z,10.30
2023-04-16T12:32:23.635Z,10.30
2023-04-16T12:35:11.974Z,10.10
2023-04-16T12:37:58.697Z,10.10
2023-04-16T12:40:45.369Z,10.10
2023-04-16T12:43:31.723Z,10.00
2023-04-16T12:46:18.069Z,10.00
2023-04-16T12:49:04.546Z,9.90
2023-04-16T12:51:52.595Z,10.00
2023-04-16T12:54:39.309Z,10.00
2023-04-16T12:57:28.653Z,10.10
2023-04-16T13:00:17.212Z,10.30
2023-04-16T13:03:03.852Z,10.40
2023-04-16T13:05:50.530Z,10.50
2023-04-16T13:08:38.407Z,10.50
2023-04-16T13:11:25.078Z,10.50
2023-04-16T13:14:11.355Z,10.50
2023-04-16T13:16:57.630Z,10.50
2023-04-16T13:19:44.115Z,10.60
2023-04-16T13:22:30.490Z,10.60
2023-04-16T13:25:18.468Z,10.50
2023-04-16T13:28:04.729Z,10.60
2023-04-16T13:30:51.253Z,10.60
2023-04-16T13:33:38.564Z,10.60
2023-04-16T13:36:27.545Z,10.60
2023-04-16T13:39:14.113Z,10.60
2023-04-16T13:42:01.862Z,10.60
2023-04-16T13:44:52.927Z,10.60
2023-04-16T13:47:41.371Z,10.60
2023-04-16T13:50:27.677Z,10.60
2023-04-16T13:53:13.996Z,10.60
2023-04-16T13:56:00.358Z,10.70
2023-04-16T13:58:48.115Z,10.80
2023-04-16T14:01:34.508Z,10.80
2023-04-16T14:04:22.309Z,10.70
2023-04-16T14:07:09.139Z,10.80
2023-04-16T14:09:55.537Z,10.90
2023-04-16T14:12:42.115Z,10.90
2023-04-16T14:15:30.097Z,10.90
2023-04-16T14:18:16.610Z,10.90
2023-04-16T14:21:03.254Z,10.90
2023-04-16T14:23:49.543Z,10.90
2023-04-16T14:26:36.053Z,10.90
2023-04-16T14:29:22.593Z,11.00
2023-04-16T14:32:10.838Z,11.10
2023-04-16T14:34:57.639Z,11.10
2023-04-16T14:37:44.480Z,11.20
2023-04-16T14:40:31.162Z,11.10
2023-04-16T14:43:17.636Z,11.00
2023-04-16T14:46:06.413Z,10.90
2023-04-16T14:48:54.561Z,10.90
2023-04-16T14:51:41.714Z,10.80
2023-04-16T14:54:28.243Z,10.70
2023-04-16T14:57:15.057Z,10.70
2023-04-16T15:00:01.565Z,10.70
2023-04-16T15:02:48.546Z,10.70
2023-04-16T15:05:36.918Z,10.80
2023-04-16T15:08:24.122Z,10.80
2023-04-16T15:11:10.484Z,10.80
2023-04-16T15:13:57.184Z,10.80
2023-04-16T15:16:44.181Z,10.80
2023-04-16T15:19:31.417Z,10.70
2023-04-16T15:22:19.351Z,10.80
2023-04-16T15:25:07.118Z,10.80
2023-04-16T15:27:53.791Z,10.70
2023-04-16T15:30:41.370Z,10.60
2023-04-16T15:33:28.151Z,10.60
2023-04-16T15:36:14.535Z,10.60
2023-04-16T15:39:02.137Z,10.60
2023-04-16T15:42:00.632Z,10.60
2023-04-16T15:44:49.030Z,10.50
2023-04-16T15:47:36.297Z,10.40
2023-04-16T15:50:22.762Z,10.30
2023-04-16T15:53:09.645Z,10.20
2023-04-16T15:55:57.501Z,10.20
2023-04-16T15:58:44.084Z,10.00
2023-04-16T16:01:31.107Z,10.00
2023-04-16T16:04:17.738Z,10.00
2023-04-16T16:07:04.706Z,10.00
2023-04-16T16:09:52.965Z,10.00
2023-04-16T16:12:41.260Z,10.00
2023-04-16T16:15:27.537Z,10.10
2023-04-16T16:18:14.052Z,10.10
2023-04-16T16:21:00.920Z,10.00
2023-04-16T16:23:47.549Z,10.00
2023-04-16T16:26:33.961Z,10.00
2023-04-16T16:29:21.680Z,10.00
2023-04-16T16:32:07.996Z,10.10
2023-04-16T16:34:54.387Z,10.10
2023-04-16T16:37:41.256Z,10.10
2023-04-16T16:40:27.656Z,10.10
2023-04-16T16:43:14.155Z,10.10
2023-04-16T16:46:02.154Z,10.00
2023-04-16T16:48:48.448Z,10.00
2023-04-16T16:51:34.759Z,10.10
2023-04-16T16:54:21.160Z,10.00
2023-04-16T16:57:08.283Z,10.00
2023-04-16T16:59:55.578Z,10.20
2023-04-16T17:02:43.930Z,10.20
2023-04-16T17:05:31.010Z,10.20
2023-04-16T17:08:17.304Z,10.20
2023-04-16T17:11:04.246Z,10.20
2023-04-16T17:13:50.732Z,10.10
2023-04-16T17:16:38.650Z,10.20
2023-04-16T17:19:27.368Z,10.20
2023-04-16T17:22:14.107Z,10.30
2023-04-16T17:25:00.713Z,10.20
2023-04-16T17:27:47.031Z,10.20
2023-04-16T17:30:33.534Z,10.10
2023-04-16T17:33:20.531Z,10.10
2023-04-16T17:36:09.027Z,10.10
2023-04-16T17:38:55.601Z,10.10
2023-04-16T17:41:42.082Z,10.10
2023-04-16T17:44:28.452Z,10.00
2023-04-16T17:47:15.352Z,9.90
2023-04-16T17:50:01.815Z,9.90
2023-04-16T17:52:49.443Z,9.80
2023-04-16T17:55:35.924Z,9.70
2023-04-16T17:58:22.307Z,9.80
2023-04-16T18:01:08.762Z,9.80
2023-04-16T18:03:55.693Z,9.80
2023-04-16T18:06:42.476Z,9.80
2023-04-16T18:09:30.538Z,9.90
2023-04-16T18:12:16.878Z,9.80
2023-04-16T18:15:03.612Z,9.90
2023-04-16T18:17:49.912Z,9.90
2023-04-16T18:20:36.586Z,10.00
2023-04-16T18:23:23.082Z,9.90
2023-04-16T18:26:11.456Z,9.90
2023-04-16T18:28:59.584Z,9.90
2023-04-16T18:31:46.574Z,9.90
2023-04-16T18:34:33.279Z,9.90
2023-04-16T18:37:19.862Z,9.80
2023-04-16T18:40:10.540Z,9.80
2023-04-16T18:42:58.610Z,9.80
2023-04-16T18:45:45.036Z,9.70
2023-04-16T18:48:31.325Z,9.60
2023-04-16T18:51:17.689Z,9.60
2023-04-16T18:54:04.329Z,9.60
2023-04-16T18:56:51.119Z,9.60
2023-04-16T18:59:39.130Z,9.50
2023-04-16T19:02:26.161Z,9.60
2023-04-16T19:05:14.088Z,9.60
2023-04-16T19:08:00.833Z,9.60
2023-04-16T19:10:48.323Z,9.60
2023-04-16T19:13:34.680Z,9.70
2023-04-16T19:16:22.526Z,9.70
2023-04-16T19:19:09.401Z,9.80
2023-04-16T19:21:56.058Z,9.80
2023-04-16T19:24:42.335Z,9.80
2023-04-16T19:27:30.406Z,9.80
2023-04-16T19:30:17.089Z,9.80
2023-04-16T19:33:05.351Z,9.80
2023-04-16T19:35:51.635Z,9.80
2023-04-16T19:38:38.176Z,9.80
2023-04-16T19:41:24.431Z,9.90
2023-04-16T19:44:11.573Z,9.80
2023-04-16T19:46:57.892Z,9.90
2023-04-16T19:49:46.029Z,9.90
2023-04-16T19:52:37.269Z,9.90
2023-04-16T19:55:24.112Z,9.90
2023-04-16T19:58:11.051Z,9.90
2023-04-16T20:00:57.842Z,9.90
2023-04-16T20:03:44.293Z,9.90
2023-04-16T20:06:32.841Z,9.80
2023-04-16T20:09:20.117Z,9.90
2023-04-16T20:12:07.089Z,9.80
2023-04-16T20:14:53.895Z,9.80
2023-04-16T20:17:40.727Z,9.80
2023-04-16T20:20:27.267Z,9.80
2023-04-16T20:23:15.653Z,9.80
2023-04-16T20:26:02.300Z,9.80
2023-04-16T20:28:48.768Z,9.80
2023-04-16T20:31:35.174Z,9.80
2023-04-16T20:34:21.736Z,9.70
2023-04-16T20:37:08.112Z,9.70
2023-04-16T20:39:56.243Z,9.60
2023-04-16T20:42:46.108Z,9.60
2023-04-16T20:45:37.948Z,9.60
2023-04-16T20:48:24.817Z,9.50
2023-04-16T20:51:11.433Z,9.50
2023-04-16T20:53:57.947Z,9.50
2023-04-16T20:56:45.827Z,9.50
2023-04-16T20:59:32.329Z,9.60
2023-04-16T21:02:20.065Z,9.60
2023-04-16T21:05:10.255Z,9.50
2023-04-16T21:07:56.661Z,9.50
2023-04-16T21:10:43.016Z,9.50
2023-04-16T21:13:31.135Z,9.50
2023-04-16T21:16:18.489Z,9.50
2023-04-16T21:19:05.143Z,9.50
2023-04-16T21:21:51.895Z,9.60
2023-04-16T21:24:38.632Z,9.60
2023-04-16T21:27:24.911Z,9.60
2023-04-16T21:30:14.121Z,9.60
2023-04-16T21:33:00.734Z,9.70
2023-04-16T21:35:52.483Z,9.60
2023-04-16T21:38:39.095Z,9.60
2023-04-16T21:41:25.598Z,9.60
2023-04-16T21:44:11.989Z,9.70
2023-04-16T21:46:59.865Z,9.60
2023-04-16T21:49:46.594Z,9.60
2023-04-16T21:52:33.705Z,9.70
2023-04-16T21:55:20.360Z,9.70
2023-04-16T21:58:07.062Z,9.60
2023-04-16T22:00:54.945Z,9.60
2023-04-16T22:03:43.002Z,9.50
2023-04-16T22:06:29.439Z,9.50
2023-04-16T22:09:15.778Z,9.40
2023-04-16T22:12:02.331Z,9.40
2023-04-16T22:15:01.542Z,9.40
2023-04-16T22:17:49.386Z,9.40
2023-04-16T22:20:39.770Z,9.30
2023-04-16T22:23:26.884Z,9.30
2023-04-16T22:26:13.828Z,9.30
2023-04-16T22:29:00.581Z,9.30
2023-04-16T22:31:47.672Z,9.30
2023-04-16T22:34:34.375Z,9.30
2023-04-16T22:37:22.186Z,9.20
2023-04-16T22:40:10.874Z,9.20
2023-04-16T22:42:57.171Z,9.20
2023-04-16T22:45:46.032Z,9.20
2023-04-16T22:48:32.838Z,9.20
2023-04-16T22:51:21.334Z,9.20
2023-04-16T22:54:13.666Z,9.10
2023-04-16T22:57:01.203Z,9.20
2023-04-16T22:59:47.590Z,9.20
2023-04-16T23:02:34.291Z,9.10
2023-04-16T23:05:21.192Z,9.10
2023-04-16T23:08:07.957Z,9.00
2023-04-16T23:10:57.053Z,9.00
2023-04-16T23:13:43.635Z,9.00
2023-04-16T23:16:29.956Z,9.10
2023-04-16T23:19:16.619Z,9.00
2023-04-16T23:22:03.830Z,9.00
2023-04-16T23:24:50.460Z,9.00
2023-04-16T23:27:38.632Z,9.00
2023-04-16T23:30:24.820Z,8.90
2023-04-16T23:33:11.290Z,8.90
2023-04-16T23:35:57.733Z,8.90
2023-04-16T23:38:44.295Z,8.90
2023-04-16T23:41:30.675Z,8.90
2023-04-16T23:44:18.501Z,8.90
2023-04-16T23:47:05.440Z,8.90
2023-04-16T23:49:52.104Z,8.90
2023-04-16T23:52:38.573Z,8.90
2023-04-16T23:55:25.326Z,8.90
2023-04-16T23:58:11.813Z,8.90
